createdAt,value
2018-09-22T00:01:17.877Z,13.40
2018-09-22T00:06:20.941Z,13.40
2018-09-22T00:11:23.976Z,13.40
2018-09-22T00:16:27.010Z,13.30
2018-09-22T00:21:30.031Z,13.20
2018-09-22T00:26:33.063Z,13.10
2018-09-22T00:31:36.489Z,13.00
2018-09-22T00:36:39.523Z,13.10
2018-09-22T00:41:42.816Z,13.10
2018-09-22T00:46:45.862Z,13.10
2018-09-22T00:51:48.875Z,13.00
2018-09-22T00:56:51.920Z,12.90
2018-09-22T01:01:54.946Z,13.00
2018-09-22T01:06:57.975Z,13.00
2018-09-22T01:12:00.974Z,12.90
2018-09-22T01:17:04.001Z,12.90
2018-09-22T01:22:07.035Z,12.90
2018-09-22T01:27:10.058Z,13.00
2018-09-22T01:32:13.071Z,13.00
2018-09-22T01:37:16.074Z,13.00
2018-09-22T01:42:19.116Z,13.10
2018-09-22T01:47:22.158Z,13.10
2018-09-22T01:52:25.233Z,13.20
2018-09-22T01:57:28.286Z,13.00
2018-09-22T02:02:31.363Z,13.00
2018-09-22T02:07:34.411Z,13.00
2018-09-22T02:12:37.424Z,12.90
2018-09-22T02:17:40.449Z,12.90
2018-09-22T02:22:43.466Z,12.80
2018-09-22T02:27:46.543Z,12.80
2018-09-22T02:32:49.587Z,12.70
2018-09-22T02:37:52.627Z,12.70
2018-09-22T02:42:55.662Z,12.70
2018-09-22T02:47:58.714Z,12.70
2018-09-22T02:53:01.788Z,12.70
2018-09-22T02:58:04.811Z,12.80
2018-09-22T03:03:07.838Z,12.80
2018-09-22T03:08:10.974Z,12.70
2018-09-22T03:13:14.006Z,12.70
2018-09-22T03:18:17.027Z,12.70
2018-09-22T03:23:20.066Z,12.50
2018-09-22T03:28:23.092Z,12.40
2018-09-22T03:33:26.092Z,12.50
2018-09-22T03:38:29.130Z,12.40
2018-09-22T03:43:32.170Z,12.20
2018-09-22T03:48:35.192Z,12.20
2018-09-22T03:53:38.426Z,12.20
2018-09-22T03:58:41.450Z,12.20
2018-09-22T04:03:44.502Z,12.20
2018-09-22T04:08:47.536Z,12.20
2018-09-22T04:13:50.563Z,12.20
2018-09-22T04:18:53.610Z,12.20
2018-09-22T04:23:56.630Z,12.10
2018-09-22T04:28:59.666Z,12.00
2018-09-22T04:34:02.698Z,12.00
2018-09-22T04:39:07.327Z,11.90
2018-09-22T04:44:10.401Z,11.90
2018-09-22T04:49:13.408Z,11.90
2018-09-22T04:54:16.404Z,12.00
2018-09-22T04:59:19.407Z,12.00
2018-09-22T05:04:23.549Z,12.00
2018-09-22T05:09:27.426Z,12.00
2018-09-22T05:14:31.036Z,12.10
2018-09-22T05:19:34.488Z,12.20
2018-09-22T05:24:38.055Z,12.20
2018-09-22T05:29:41.050Z,12.00
2018-09-22T05:34:45.118Z,12.00
2018-09-22T05:39:48.123Z,11.90
2018-09-22T05:44:51.854Z,11.80
2018-09-22T05:49:54.868Z,11.80
2018-09-22T05:54:57.895Z,12.00
2018-09-22T06:00:00.925Z,11.90
2018-09-22T06:05:03.987Z,11.90
2018-09-22T06:10:07.665Z,11.90
2018-09-22T06:15:10.768Z,11.90
2018-09-22T06:20:13.779Z,12.00
2018-09-22T06:25:16.970Z,12.10
2018-09-22T06:30:19.976Z,12.20
2018-09-22T06:35:23.091Z,12.30
2018-09-22T06:40:26.094Z,12.40
2018-09-22T06:45:29.118Z,12.60
2018-09-22T06:50:32.130Z,12.80
2018-09-22T06:55:35.139Z,13.10
2018-09-22T07:00:38.852Z,13.10
2018-09-22T07:05:41.930Z,13.20
2018-09-22T07:10:44.934Z,13.10
2018-09-22T07:15:48.023Z,13.10
2018-09-22T07:20:56.578Z,13.20
2018-09-22T07:25:59.634Z,13.30
2018-09-22T07:31:02.654Z,13.30
2018-09-22T07:36:05.733Z,13.40
2018-09-22T07:41:08.767Z,13.50
2018-09-22T07:46:11.867Z,13.70
2018-09-22T07:51:15.462Z,13.80
2018-09-22T07:56:18.582Z,13.90
2018-09-22T08:01:21.626Z,13.80
2018-09-22T08:06:24.680Z,13.70
2018-09-22T08:11:27.874Z,13.70
2018-09-22T08:16:30.989Z,13.90
2018-09-22T08:21:34.151Z,14.20
2018-09-22T08:26:38.011Z,14.40
2018-09-22T08:31:41.202Z,14.40
2018-09-22T08:36:44.364Z,14.20
2018-09-22T08:41:47.390Z,14.10
2018-09-22T08:46:50.503Z,14.20
2018-09-22T08:51:53.597Z,14.60
2018-09-22T08:56:56.595Z,14.70
2018-09-22T09:01:59.723Z,14.80
2018-09-22T09:07:02.771Z,14.80
2018-09-22T09:12:06.006Z,15.00
2018-09-22T09:17:09.121Z,15.10
2018-09-22T09:22:12.079Z,16.00
2018-09-22T09:27:15.195Z,15.70
2018-09-22T09:32:18.214Z,15.40
2018-09-22T09:37:21.268Z,15.70
2018-09-22T09:42:24.325Z,16.20
2018-09-22T09:47:27.608Z,16.20
2018-09-22T09:52:30.646Z,16.00
2018-09-22T09:57:33.722Z,15.70
2018-09-22T10:02:36.725Z,15.60
2018-09-22T10:07:39.724Z,15.70
2018-09-22T10:12:42.746Z,15.70
2018-09-22T10:17:46.107Z,15.40
2018-09-22T10:22:49.115Z,15.40
2018-09-22T10:27:52.126Z,15.50
2018-09-22T10:32:55.151Z,15.70
2018-09-22T10:37:58.183Z,15.70
2018-09-22T10:43:01.194Z,15.60
2018-09-22T10:48:04.240Z,16.10
2018-09-22T10:53:07.423Z,16.00
2018-09-22T10:58:10.292Z,15.80
2018-09-22T11:03:13.371Z,15.90
2018-09-22T11:08:16.338Z,16.20
2018-09-22T11:13:19.340Z,16.30
2018-09-22T11:18:22.574Z,17.90
2018-09-22T11:23:25.746Z,19.00
2018-09-22T11:28:28.761Z,18.60
2018-09-22T11:33:31.865Z,17.20
2018-09-22T11:38:34.839Z,17.80
2018-09-22T11:43:38.274Z,18.50
2018-09-22T11:48:41.739Z,18.00
2018-09-22T11:53:46.801Z,17.40
2018-09-22T11:58:50.984Z,16.90
2018-09-22T12:03:53.975Z,17.30
2018-09-22T12:08:56.972Z,18.00
2018-09-22T12:14:00.039Z,17.80
2018-09-22T12:19:03.274Z,17.50
2018-09-22T12:24:06.292Z,17.10
2018-09-22T12:29:09.290Z,16.80
2018-09-22T12:34:12.291Z,17.10
2018-09-22T12:39:15.278Z,17.20
2018-09-22T12:44:18.307Z,17.50
2018-09-22T12:49:21.301Z,18.30
2018-09-22T12:54:24.455Z,18.60
2018-09-22T12:59:27.455Z,18.40
2018-09-22T13:04:30.479Z,18.20
2018-09-22T13:09:33.533Z,18.40
2018-09-22T13:14:36.541Z,18.00
2018-09-22T13:19:39.530Z,17.70
2018-09-22T13:24:42.549Z,17.70
2018-09-22T13:29:45.532Z,17.70
2018-09-22T13:34:48.538Z,17.80
2018-09-22T13:39:51.561Z,17.90
2018-09-22T13:44:54.558Z,17.80
2018-09-22T13:49:57.589Z,17.80
2018-09-22T13:55:00.598Z,17.90
2018-09-22T14:00:03.710Z,17.90
2018-09-22T14:05:06.758Z,18.00
2018-09-22T14:10:09.795Z,18.20
2018-09-22T14:15:12.764Z,18.40
2018-09-22T14:20:15.780Z,18.40
2018-09-22T14:25:18.903Z,18.40
2018-09-22T14:30:21.922Z,18.30
2018-09-22T14:35:24.967Z,18.20
2018-09-22T14:40:28.031Z,18.10
2018-09-22T14:45:31.051Z,17.90
2018-09-22T14:50:34.132Z,17.70
2018-09-22T14:55:37.173Z,17.60
2018-09-22T15:00:40.167Z,17.70
2018-09-22T15:05:43.204Z,17.70
2018-09-22T15:10:46.420Z,18.00
2018-09-22T15:15:49.454Z,18.10
2018-09-22T15:20:52.471Z,18.20
2018-09-22T15:25:55.567Z,18.10
2018-09-22T15:30:58.582Z,18.10
2018-09-22T15:36:01.586Z,18.00
2018-09-22T15:41:04.599Z,17.60
2018-09-22T15:46:07.706Z,17.50
2018-09-22T15:51:10.705Z,17.50
2018-09-22T15:56:13.715Z,17.60
2018-09-22T16:01:16.707Z,17.30
2018-09-22T16:06:19.702Z,17.20
2018-09-22T16:11:22.706Z,17.10
2018-09-22T16:16:25.702Z,17.10
2018-09-22T16:21:28.738Z,17.00
2018-09-22T16:26:31.773Z,17.00
2018-09-22T16:31:35.407Z,17.00
2018-09-22T16:36:38.390Z,16.90
2018-09-22T16:41:42.367Z,16.80
2018-09-22T16:46:45.361Z,16.70
2018-09-22T16:51:48.354Z,16.80
2018-09-22T16:56:51.393Z,16.70
2018-09-22T17:01:54.382Z,16.60
2018-09-22T17:06:57.388Z,16.50
2018-09-22T17:12:00.371Z,16.60
2018-09-22T17:17:03.399Z,16.60
2018-09-22T17:22:06.463Z,16.60
2018-09-22T17:27:09.517Z,16.60
2018-09-22T17:32:12.594Z,16.50
2018-09-22T17:37:15.648Z,16.50
2018-09-22T17:42:18.711Z,16.40
2018-09-22T17:47:21.717Z,16.50
2018-09-22T17:52:24.794Z,16.50
2018-09-22T17:57:29.283Z,16.60
2018-09-22T18:02:32.278Z,16.50
2018-09-22T18:07:35.371Z,16.50
2018-09-22T18:12:38.373Z,16.30
2018-09-22T18:17:42.851Z,16.20
2018-09-22T18:22:45.874Z,16.20
2018-09-22T18:27:48.894Z,16.20
2018-09-22T18:32:51.991Z,16.20
2018-09-22T18:37:55.003Z,16.10
2018-09-22T18:42:57.995Z,16.10
2018-09-22T18:48:00.994Z,16.10
2018-09-22T18:53:04.222Z,16.10
2018-09-22T18:58:07.246Z,16.00
2018-09-22T19:03:10.267Z,16.10
2018-09-22T19:08:13.375Z,16.10
2018-09-22T19:13:20.623Z,15.90
2018-09-22T19:18:28.839Z,15.80
2018-09-22T19:23:38.474Z,15.70
2018-09-22T19:28:47.275Z,15.50
2018-09-22T19:33:53.412Z,15.50
2018-09-22T19:39:02.187Z,15.30
2018-09-22T19:44:10.690Z,15.10
2018-09-22T19:49:32.242Z,15.00
2018-09-22T19:54:35.274Z,15.00
2018-09-22T19:59:38.306Z,14.80
2018-09-22T20:04:41.322Z,14.70
2018-09-22T20:09:44.331Z,14.70
2018-09-22T20:14:47.334Z,14.50
2018-09-22T20:19:50.342Z,14.30
2018-09-22T20:24:53.842Z,14.20
2018-09-22T20:29:56.847Z,14.00
2018-09-22T20:34:59.845Z,14.00
2018-09-22T20:40:02.874Z,14.10
2018-09-22T20:45:06.085Z,14.10
2018-09-22T20:50:09.071Z,14.10
2018-09-22T20:55:12.273Z,14.10
2018-09-22T21:00:15.262Z,14.10
2018-09-22T21:05:18.366Z,14.20
2018-09-22T21:10:21.386Z,14.20
2018-09-22T21:15:24.475Z,14.10
2018-09-22T21:20:27.482Z,13.90
2018-09-22T21:25:30.502Z,13.80
2018-09-22T21:30:33.519Z,13.70
2018-09-22T21:35:36.589Z,13.60
2018-09-22T21:40:39.690Z,13.50
2018-09-22T21:45:42.711Z,13.40
2018-09-22T21:50:45.723Z,13.20
2018-09-22T21:55:48.806Z,13.20
2018-09-22T22:00:53.002Z,13.20
2018-09-22T22:05:56.434Z,13.00
2018-09-22T22:10:59.654Z,13.00
2018-09-22T22:16:02.663Z,12.80
2018-09-22T22:21:05.658Z,12.90
2018-09-22T22:26:08.751Z,12.80
2018-09-22T22:31:11.748Z,12.80
2018-09-22T22:36:14.871Z,12.80
2018-09-22T22:41:18.138Z,12.80
2018-09-22T22:46:21.183Z,12.80
2018-09-22T22:51:24.559Z,12.70
2018-09-22T22:56:27.651Z,12.50
2018-09-22T23:01:30.702Z,12.60
2018-09-22T23:06:33.705Z,12.60
2018-09-22T23:11:37.123Z,12.80
2018-09-22T23:16:40.182Z,12.80
2018-09-22T23:21:43.365Z,12.60
2018-09-22T23:26:46.797Z,12.60
2018-09-22T23:31:49.806Z,12.50
2018-09-22T23:36:52.845Z,12.40
2018-09-22T23:41:55.858Z,12.40
2018-09-22T23:46:58.883Z,12.50
2018-09-22T23:52:01.951Z,12.50
2018-09-22T23:57:04.954Z,12.40
